Time;durP1;ratioP1;P1;durP2;ratioP2;P2;SDS_P1;SDS_P2;PMS_P1;PMS_P2;Temp;Humidity;BMP_temperature;BMP_pressure;BME280_temperature;BME280_humidity;BME280_pressure;Samples;Min_cycle;Max_cycle;Signal;HPM_P1;HPM_P2
2022/11/05 00:10:19;;;;;;;17.67;13.10;;;9.00;99.90;;;;;;4989502;28;20188;-76
2022/11/05 00:18:14;;;;;;;13.07;11.67;;;9.00;99.90;;;;;;4988316;28;20204;-75
2022/11/05 00:20:40;;;;;;;12.70;11.40;;;9.00;99.90;;;;;;4985529;28;20295;-75
2022/11/05 00:25:57;;;;;;;13.57;11.87;;;9.00;99.90;;;;;;4988625;28;20394;-75
2022/11/05 00:28:24;;;;;;;14.47;12.83;;;9.10;99.90;;;;;;4988252;28;20202;-74
2022/11/05 00:30:50;;;;;;;14.60;13.20;;;9.10;99.90;;;;;;4980924;28;20181;-75
2022/11/05 00:33:16;;;;;;;15.40;13.97;;;9.10;99.90;;;;;;4969229;28;20185;-75
2022/11/05 00:35:41;;;;;;;15.27;13.77;;;9.10;99.90;;;;;;4969219;28;20176;-75
2022/11/05 00:38:07;;;;;;;18.17;16.57;;;9.10;99.90;;;;;;4967541;28;20209;-75
2022/11/05 00:40:33;;;;;;;16.83;14.00;;;9.20;99.90;;;;;;4974060;28;20227;-75
2022/11/05 00:45:44;;;;;;;12.70;11.40;;;9.20;99.90;;;;;;4987984;28;20192;-75
2022/11/05 00:50:54;;;;;;;14.40;11.83;;;9.20;99.90;;;;;;4981383;28;20589;-75
2022/11/05 00:53:20;;;;;;;13.10;11.90;;;9.20;99.90;;;;;;4970215;28;20185;-75
2022/11/05 00:55:46;;;;;;;15.03;12.73;;;9.20;99.90;;;;;;4967764;28;20538;-75
2022/11/05 00:58:16;;;;;;;16.17;14.67;;;9.20;99.90;;;;;;4967238;28;20252;-75
2022/11/05 01:00:54;;;;;;;22.07;20.10;;;9.20;99.90;;;;;;4973642;28;20232;-74
2022/11/05 01:03:22;;;;;;;28.00;26.03;;;9.20;99.90;;;;;;4986979;28;20212;-74
2022/11/05 01:05:54;;;;;;;26.73;24.80;;;9.20;99.90;;;;;;4986548;28;20271;-74
2022/11/05 01:08:23;;;;;;;30.20;27.67;;;9.20;99.90;;;;;;4987915;28;20300;-74
2022/11/05 01:10:52;;;;;;;30.43;28.07;;;9.20;99.90;;;;;;4979934;28;20642;-74
2022/11/05 01:13:22;;;;;;;33.47;31.10;;;9.20;99.90;;;;;;4967439;28;20184;-75
2022/11/05 01:15:49;;;;;;;39.97;36.93;;;9.30;99.90;;;;;;4968834;28;20194;-75
2022/11/05 01:18:16;;;;;;;47.60;44.23;;;9.30;99.90;;;;;;4967017;28;20795;-75
2022/11/05 01:20:42;;;;;;;44.97;41.53;;;9.20;99.90;;;;;;4973890;28;20299;-75
2022/11/05 01:23:08;;;;;;;46.30;43.33;;;9.30;99.90;;;;;;4987974;28;20268;-75
2022/11/05 01:25:34;;;;;;;57.20;53.63;;;9.30;99.90;;;;;;4987078;28;20686;-75
2022/11/05 01:28:01;;;;;;;49.00;45.60;;;9.30;99.90;;;;;;4987591;28;20583;-75
2022/11/05 01:30:27;;;;;;;42.53;39.50;;;9.30;99.90;;;;;;4983394;28;20535;-74
2022/11/05 01:32:53;;;;;;;38.80;36.20;;;9.30;99.90;;;;;;4967141;28;20242;-75
2022/11/05 01:35:19;;;;;;;45.47;42.23;;;9.30;99.90;;;;;;4968514;28;20207;-74
2022/11/05 01:37:45;;;;;;;43.10;40.43;;;9.30;99.90;;;;;;4968011;28;20201;-74
2022/11/05 01:40:20;;;;;;;44.03;40.83;;;9.30;99.90;;;;;;4969041;28;20213;-74
2022/11/05 01:42:45;;;;;;;39.70;37.10;;;9.30;99.90;;;;;;4986610;28;20244;-75
2022/11/05 01:45:13;;;;;;;42.13;39.53;;;9.30;99.90;;;;;;4987856;28;20181;-74
2022/11/05 01:47:59;;;;;;;45.73;42.77;;;9.30;99.90;;;;;;4986259;28;20200;-73
2022/11/05 01:50:36;;;;;;;23.67;21.97;;;9.30;99.90;;;;;;4984122;28;20191;-74
2022/11/05 01:53:14;;;;;;;16.97;15.53;;;9.20;99.90;;;;;;4980443;28;20715;-75
2022/11/05 01:55:44;;;;;;;17.43;15.47;;;9.20;99.90;;;;;;4967375;28;20272;-74
2022/11/05 01:58:15;;;;;;;13.43;12.03;;;9.20;99.90;;;;;;4969734;28;20213;-73
2022/11/05 02:00:41;;;;;;;15.07;11.40;;;9.20;99.90;;;;;;4970265;28;20219;-73
2022/11/05 02:03:08;;;;;;;13.63;12.10;;;9.10;99.90;;;;;;4990305;28;20183;-73
2022/11/05 02:05:34;;;;;;;11.13;9.83;;;9.10;99.90;;;;;;4991007;28;20191;-73
2022/11/05 02:08:00;;;;;;;11.17;10.07;;;9.10;99.90;;;;;;4990379;28;20197;-73
2022/11/05 02:10:27;;;;;;;12.50;10.07;;;9.10;99.90;;;;;;4989624;28;20192;-72
2022/11/05 02:12:53;;;;;;;11.90;10.47;;;9.10;99.90;;;;;;4973687;28;20188;-72
2022/11/05 02:15:52;;;;;;;18.60;17.10;;;9.10;99.90;;;;;;4970273;28;20242;-72
2022/11/05 02:18:27;;;;;;;31.13;28.63;;;9.20;99.90;;;;;;4970848;28;20213;-72
2022/11/05 02:21:04;;;;;;;32.20;30.03;;;9.20;99.90;;;;;;4970180;28;20204;-72
2022/11/05 02:23:59;;;;;;;27.63;25.33;;;9.20;99.90;;;;;;4990505;28;20699;-72
2022/11/05 02:26:47;;;;;;;20.63;19.20;;;9.20;99.90;;;;;;4989267;28;20177;-72
2022/11/05 02:29:50;;;;;;;21.50;19.97;;;9.20;99.90;;;;;;4989337;28;20190;-72
2022/11/05 02:32:29;;;;;;;16.27;14.70;;;9.20;99.90;;;;;;4978722;28;20180;-71
2022/11/05 02:35:02;;;;;;;13.13;11.83;;;9.20;99.90;;;;;;4972155;28;20645;-74
2022/11/05 02:37:47;;;;;;;13.23;12.13;;;9.20;99.90;;;;;;4982793;28;20707;-72
2022/11/05 02:40:31;;;;;;;12.03;10.93;;;9.10;99.90;;;;;;4989334;28;20237;-72
2022/11/05 02:43:14;;;;;;;11.00;10.00;;;9.20;99.90;;;;;;4972371;28;20188;-73
2022/11/05 02:45:51;;;;;;;11.00;10.10;;;9.20;99.90;;;;;;4969849;28;20182;-74
2022/11/05 02:48:19;;;;;;;11.43;10.47;;;9.10;99.90;;;;;;4969353;28;20204;-74
2022/11/05 02:51:16;;;;;;;11.43;10.27;;;9.10;99.90;;;;;;4970973;28;20196;-74
2022/11/05 02:54:08;;;;;;;10.33;9.43;;;9.20;99.90;;;;;;4977328;28;20199;-73
2022/11/05 02:56:41;;;;;;;12.80;11.80;;;9.20;99.90;;;;;;4991437;28;20192;-75
2022/11/05 02:59:07;;;;;;;13.27;12.30;;;9.20;99.90;;;;;;4989921;28;20192;-73
2022/11/05 03:01:35;;;;;;;15.17;13.93;;;9.20;99.90;;;;;;4983599;28;20180;-74
2022/11/05 03:04:05;;;;;;;14.40;13.00;;;9.20;99.90;;;;;;4970592;28;20226;-73
2022/11/05 03:06:54;;;;;;;17.33;15.93;;;9.20;99.90;;;;;;4970210;28;20234;-72
2022/11/05 03:09:34;;;;;;;17.53;16.10;;;9.30;99.90;;;;;;4969220;28;20185;-73
2022/11/05 03:12:24;;;;;;;22.10;20.27;;;9.30;99.90;;;;;;4978342;28;20197;-73
2022/11/05 03:14:55;;;;;;;16.80;15.30;;;9.30;99.90;;;;;;4989736;28;20206;-72
2022/11/05 03:17:28;;;;;;;16.77;15.57;;;9.30;99.90;;;;;;4988354;28;20575;-73
2022/11/05 03:20:09;;;;;;;19.53;17.93;;;9.30;99.90;;;;;;4989508;28;20711;-72
2022/11/05 03:22:45;;;;;;;20.30;18.60;;;9.30;99.90;;;;;;4976738;28;20184;-72
2022/11/05 03:25:19;;;;;;;21.27;19.83;;;9.30;99.90;;;;;;4970402;28;20600;-72
2022/11/05 03:27:48;;;;;;;22.00;20.30;;;9.30;99.90;;;;;;4970044;28;20688;-72
2022/11/05 03:30:16;;;;;;;19.70;18.10;;;9.30;99.90;;;;;;4970386;28;20219;-73
2022/11/05 03:32:49;;;;;;;22.97;21.20;;;9.40;99.90;;;;;;4982300;28;20184;-72
2022/11/05 03:35:24;;;;;;;23.63;21.93;;;9.40;99.90;;;;;;4989723;28;20212;-73
2022/11/05 03:37:55;;;;;;;22.97;21.43;;;9.40;99.90;;;;;;4987877;28;20680;-73
2022/11/05 03:40:23;;;;;;;22.77;20.97;;;9.30;99.90;;;;;;4989690;28;20216;-73
2022/11/05 03:42:52;;;;;;;21.73;20.23;;;9.40;99.90;;;;;;4973740;28;20725;-73
2022/11/05 03:45:27;;;;;;;22.13;20.47;;;9.30;99.90;;;;;;4970068;28;20177;-73
2022/11/05 03:47:58;;;;;;;20.97;19.30;;;9.40;99.90;;;;;;4969729;28;20200;-73
2022/11/05 03:50:37;;;;;;;22.30;20.50;;;9.40;99.90;;;;;;4968799;28;20197;-73
2022/11/05 03:53:16;;;;;;;24.80;22.77;;;9.30;99.90;;;;;;4970959;28;20239;-73
2022/11/05 03:55:50;;;;;;;25.77;23.80;;;9.40;99.90;;;;;;4970038;28;20646;-73
2022/11/05 03:58:18;;;;;;;27.03;25.07;;;9.30;99.90;;;;;;4968436;28;20223;-73
2022/11/05 04:00:44;;;;;;;23.73;22.07;;;9.40;99.90;;;;;;4968611;28;20205;-73
2022/11/05 04:03:10;;;;;;;19.50;18.07;;;9.40;99.90;;;;;;4986394;28;20691;-73
2022/11/05 04:05:36;;;;;;;18.40;16.90;;;9.40;99.90;;;;;;4988106;28;20177;-73
2022/11/05 04:13:31;;;;;;;21.03;19.73;;;9.40;99.90;;;;;;4988545;28;20168;-73
2022/11/05 04:18:42;;;;;;;17.17;15.77;;;9.30;99.90;;;;;;4988864;28;20215;-73
2022/11/05 04:24:09;;;;;;;15.60;13.07;;;9.30;99.90;;;;;;4969638;28;20185;-73
2022/11/05 04:26:40;;;;;;;14.20;13.00;;;9.30;99.90;;;;;;4986466;28;20211;-73
2022/11/05 04:31:51;;;;;;;14.80;13.33;;;9.30;99.90;;;;;;4982969;28;20181;-73
2022/11/05 04:34:23;;;;;;;13.33;12.33;;;9.30;99.90;;;;;;4969224;28;20195;-73
2022/11/05 04:36:50;;;;;;;12.33;11.33;;;9.30;99.90;;;;;;4976029;28;20677;-73
2022/11/05 04:39:20;;;;;;;12.33;11.53;;;9.30;99.90;;;;;;4988256;28;20184;-73
2022/11/05 04:41:47;;;;;;;24.73;23.27;;;9.30;99.90;;;;;;4988142;28;20185;-73
2022/11/05 04:44:14;;;;;;;33.40;31.30;;;9.30;99.90;;;;;;4986853;28;20566;-73
2022/11/05 04:46:40;;;;;;;27.50;26.00;;;9.30;99.90;;;;;;4988165;28;20187;-72
2022/11/05 04:49:05;;;;;;;32.07;30.23;;;9.30;99.90;;;;;;4988003;28;20180;-73
2022/11/05 04:51:31;;;;;;;17.40;16.37;;;9.20;99.90;;;;;;4985354;28;20249;-73
2022/11/05 04:53:57;;;;;;;22.50;21.10;;;9.30;99.90;;;;;;4968925;28;20212;-73
2022/11/05 04:56:24;;;;;;;18.20;17.07;;;9.30;99.90;;;;;;4968688;28;20182;-70
2022/11/05 04:58:50;;;;;;;27.17;25.50;;;9.30;99.90;;;;;;4967992;28;20189;-70
2022/11/05 05:01:18;;;;;;;33.80;31.90;;;9.30;99.90;;;;;;4968521;28;20323;-70
2022/11/05 05:03:49;;;;;;;30.77;28.70;;;9.30;99.90;;;;;;4968597;28;20181;-71
2022/11/05 05:06:16;;;;;;;27.50;26.00;;;9.30;99.90;;;;;;4966906;28;20189;-71
2022/11/05 05:08:41;;;;;;;28.33;26.00;;;9.30;99.90;;;;;;4968303;28;20331;-71
2022/11/05 05:11:13;;;;;;;29.33;27.57;;;9.30;99.90;;;;;;4968711;28;20272;-71
2022/11/05 05:13:38;;;;;;;26.53;25.03;;;9.30;99.90;;;;;;4968587;28;20653;-69
2022/11/05 05:16:14;;;;;;;29.43;27.57;;;9.30;99.90;;;;;;4967141;28;20281;-69
2022/11/05 05:18:39;;;;;;;28.50;26.63;;;9.30;99.90;;;;;;4967916;28;20262;-69
2022/11/05 05:23:49;;;;;;;43.80;41.17;;;9.30;99.90;;;;;;4968306;28;20177;-70
2022/11/05 05:26:15;;;;;;;40.70;37.93;;;9.30;99.90;;;;;;4968155;28;20633;-70
2022/11/05 05:28:41;;;;;;;37.90;35.27;;;9.30;99.90;;;;;;4976798;28;20249;-70
2022/11/05 05:31:08;;;;;;;25.43;23.40;;;9.30;99.90;;;;;;4986143;28;20180;-70
2022/11/05 05:33:34;;;;;;;19.83;18.03;;;9.30;99.90;;;;;;4982225;28;20525;-70
2022/11/05 05:36:01;;;;;;;17.47;15.87;;;9.30;99.90;;;;;;4990469;28;20645;-71
2022/11/05 05:38:28;;;;;;;19.67;17.60;;;9.30;99.90;;;;;;4990624;28;20212;-70
2022/11/05 05:40:57;;;;;;;19.43;17.50;;;9.30;99.90;;;;;;4990824;28;20238;-70
2022/11/05 05:43:24;;;;;;;27.10;24.67;;;9.30;99.90;;;;;;4990831;28;20181;-70
2022/11/05 05:45:50;;;;;;;20.40;18.50;;;9.30;99.90;;;;;;4989079;28;20187;-69
2022/11/05 05:48:16;;;;;;;19.57;17.73;;;9.30;99.90;;;;;;4990645;28;20722;-70
2022/11/05 05:50:42;;;;;;;17.40;15.67;;;9.30;99.90;;;;;;4990879;28;20177;-69
2022/11/05 05:53:08;;;;;;;18.67;16.17;;;9.20;99.90;;;;;;4990780;28;20182;-69
2022/11/05 05:55:33;;;;;;;19.70;17.73;;;9.20;99.90;;;;;;4989530;28;20198;-71
2022/11/05 05:57:59;;;;;;;14.77;13.07;;;9.20;99.90;;;;;;4979431;28;20220;-70
2022/11/05 06:00:25;;;;;;;16.03;14.33;;;9.20;99.90;;;;;;4971297;28;20269;-71
2022/11/05 06:02:51;;;;;;;14.40;13.00;;;9.20;99.90;;;;;;4970083;28;20181;-71
2022/11/05 06:05:16;;;;;;;14.90;13.37;;;9.20;99.90;;;;;;4969920;28;20200;-70
2022/11/05 06:07:42;;;;;;;13.80;12.53;;;9.20;99.90;;;;;;4970687;28;20200;-71
2022/11/05 06:10:08;;;;;;;14.10;12.70;;;9.10;99.90;;;;;;4971130;28;20181;-71
2022/11/05 06:12:34;;;;;;;14.60;13.10;;;9.10;99.90;;;;;;4983774;28;20200;-72
2022/11/05 06:14:59;;;;;;;15.93;14.33;;;9.10;99.90;;;;;;4990259;28;20188;-69
2022/11/05 06:17:25;;;;;;;15.90;14.33;;;9.10;99.90;;;;;;4990028;28;20684;-69
2022/11/05 06:19:51;;;;;;;17.50;14.03;;;9.10;99.90;;;;;;4990208;28;20208;-70
2022/11/05 06:22:17;;;;;;;15.23;13.73;;;9.10;99.90;;;;;;4990324;28;20200;-70
2022/11/05 06:24:42;;;;;;;16.57;14.73;;;9.10;99.90;;;;;;4990363;28;20227;-70
2022/11/05 06:27:08;;;;;;;17.30;15.10;;;9.10;99.90;;;;;;4970579;28;20232;-72
2022/11/05 06:29:34;;;;;;;18.73;15.80;;;9.10;99.90;;;;;;4971113;28;20192;-70
2022/11/05 06:32:01;;;;;;;17.90;16.07;;;9.10;99.90;;;;;;4969839;28;20193;-70
2022/11/05 06:34:27;;;;;;;19.23;17.33;;;9.10;99.90;;;;;;4971370;28;20543;-70
2022/11/05 06:36:53;;;;;;;22.87;17.23;;;9.10;99.90;;;;;;4970885;28;20215;-70
2022/11/05 06:39:19;;;;;;;23.50;16.43;;;9.10;99.90;;;;;;4973987;28;20208;-70
2022/11/05 06:41:45;;;;;;;19.67;16.53;;;9.10;99.90;;;;;;4990278;28;20189;-70
2022/11/05 06:44:11;;;;;;;19.33;16.10;;;9.10;99.90;;;;;;4990404;28;20945;-70
2022/11/05 06:46:36;;;;;;;21.57;18.70;;;9.10;99.90;;;;;;4989119;28;20192;-69
2022/11/05 06:49:02;;;;;;;38.83;35.90;;;9.10;99.90;;;;;;4989960;28;20180;-71
2022/11/05 06:51:29;;;;;;;69.73;65.00;;;9.10;99.90;;;;;;4990580;28;20184;-71
2022/11/05 06:53:54;;;;;;;50.70;46.90;;;9.10;99.90;;;;;;4982664;28;20185;-71
2022/11/05 06:56:20;;;;;;;36.87;33.87;;;9.10;99.90;;;;;;4969298;28;20181;-70
2022/11/05 06:58:46;;;;;;;51.73;46.83;;;9.20;99.90;;;;;;4969192;28;20228;-71
2022/11/05 07:01:12;;;;;;;67.50;62.53;;;9.20;99.90;;;;;;4969492;28;20213;-72
2022/11/05 07:03:38;;;;;;;61.47;56.73;;;9.20;99.90;;;;;;4970355;28;20596;-70
2022/11/05 07:06:05;;;;;;;34.83;31.43;;;9.20;99.90;;;;;;4969482;28;20185;-70
2022/11/05 07:08:33;;;;;;;27.37;20.37;;;9.20;99.90;;;;;;4971101;28;20224;-70
2022/11/05 07:10:59;;;;;;;23.07;17.47;;;9.20;99.90;;;;;;4983995;28;20652;-70
2022/11/05 07:13:25;;;;;;;21.37;16.40;;;9.20;99.90;;;;;;4990312;28;20611;-72
2022/11/05 07:15:51;;;;;;;22.80;17.23;;;9.20;99.90;;;;;;4988958;28;20181;-71
2022/11/05 07:18:16;;;;;;;26.83;17.93;;;9.20;99.90;;;;;;4989204;28;20208;-71
2022/11/05 07:20:42;;;;;;;25.43;18.50;;;9.20;99.90;;;;;;4988851;28;20234;-71
2022/11/05 07:23:13;;;;;;;23.40;19.53;;;9.20;99.90;;;;;;4972523;28;20177;-71
2022/11/05 07:25:40;;;;;;;23.10;18.60;;;9.20;99.90;;;;;;4988184;28;20606;-71
2022/11/05 07:28:06;;;;;;;24.63;22.00;;;9.20;99.90;;;;;;4989399;28;20207;-70
2022/11/05 07:30:33;;;;;;;26.77;23.33;;;9.30;99.90;;;;;;4986713;28;20193;-70
2022/11/05 07:32:59;;;;;;;25.17;22.67;;;9.30;99.90;;;;;;4988904;28;20565;-70
2022/11/05 07:35:25;;;;;;;31.80;28.50;;;9.30;99.90;;;;;;4986907;28;20189;-70
2022/11/05 07:37:53;;;;;;;31.53;28.80;;;9.30;99.90;;;;;;4969709;28;20272;-71
2022/11/05 07:40:19;;;;;;;29.53;26.93;;;9.30;99.90;;;;;;4969706;28;20209;-71
2022/11/05 07:42:48;;;;;;;34.47;31.13;;;9.30;99.90;;;;;;4970243;28;20179;-72
2022/11/05 07:45:15;;;;;;;30.80;28.17;;;9.40;99.90;;;;;;4969446;28;20181;-71
2022/11/05 07:47:48;;;;;;;35.83;32.90;;;9.50;99.90;;;;;;4985016;28;20196;-71
2022/11/05 07:50:16;;;;;;;21.97;15.47;;;9.50;99.90;;;;;;4988370;28;20218;-71
2022/11/05 07:52:42;;;;;;;17.97;15.07;;;9.50;99.90;;;;;;4988911;28;20177;-70
2022/11/05 07:55:09;;;;;;;17.40;14.47;;;9.60;99.90;;;;;;4988083;28;20189;-71
2022/11/05 07:57:46;;;;;;;21.37;13.60;;;9.60;99.90;;;;;;4988647;28;20595;-70
2022/11/05 08:00:19;;;;;;;14.27;12.77;;;9.70;99.90;;;;;;4988883;28;20261;-71
2022/11/05 08:02:56;;;;;;;20.60;17.43;;;9.80;99.90;;;;;;4986762;28;20176;-71
2022/11/05 08:05:22;;;;;;;36.93;34.27;;;9.90;99.90;;;;;;4978079;28;20180;-71
2022/11/05 08:07:47;;;;;;;15.93;14.07;;;9.90;99.90;;;;;;4988812;28;20242;-71
2022/11/05 08:10:13;;;;;;;17.60;14.90;;;10.00;99.90;;;;;;4988802;28;20689;-71
2022/11/05 08:12:39;;;;;;;18.43;16.57;;;10.00;99.90;;;;;;4986386;28;20172;-72
2022/11/05 08:15:05;;;;;;;35.40;32.83;;;10.10;99.90;;;;;;5049405;28;20197;-71
2022/11/05 08:17:31;;;;;;;41.27;38.40;;;10.10;99.90;;;;;;5023236;28;20196;-72
2022/11/05 08:19:56;;;;;;;29.77;27.43;;;10.20;99.90;;;;;;4969167;28;20246;-74
2022/11/05 08:22:22;;;;;;;22.33;20.33;;;10.20;99.90;;;;;;4968446;28;20664;-73
2022/11/05 08:24:48;;;;;;;19.33;17.70;;;10.30;99.90;;;;;;4968970;28;20192;-73
2022/11/05 08:27:14;;;;;;;19.07;17.10;;;10.30;99.90;;;;;;4969385;28;20193;-73
2022/11/05 08:29:39;;;;;;;18.47;15.60;;;10.30;99.90;;;;;;4969544;28;20203;-73
2022/11/05 08:32:05;;;;;;;17.43;14.90;;;10.40;99.90;;;;;;4968333;28;20187;-74
2022/11/05 08:34:31;;;;;;;15.20;13.60;;;10.40;99.90;;;;;;4969738;28;20275;-73
2022/11/05 08:36:59;;;;;;;17.83;16.03;;;10.50;99.90;;;;;;4969230;28;20633;-72
2022/11/05 08:39:25;;;;;;;18.00;16.37;;;10.50;99.90;;;;;;4970116;28;20182;-73
2022/11/05 08:41:51;;;;;;;16.33;13.87;;;10.60;99.90;;;;;;4987287;28;20206;-73
2022/11/05 08:44:17;;;;;;;20.50;18.50;;;10.60;99.90;;;;;;4987767;28;20215;-73
2022/11/05 08:46:43;;;;;;;25.00;22.80;;;10.60;99.90;;;;;;4988557;28;20710;-73
2022/11/05 08:49:08;;;;;;;25.47;23.47;;;10.60;99.90;;;;;;4987379;28;20302;-73
2022/11/05 08:51:34;;;;;;;33.90;31.37;;;10.60;99.90;;;;;;4988782;28;20230;-73
2022/11/05 08:54:00;;;;;;;35.80;32.40;;;10.60;99.90;;;;;;4983054;28;20185;-73
2022/11/05 08:56:26;;;;;;;33.43;30.63;;;10.70;99.90;;;;;;4969248;28;20188;-72
2022/11/05 08:58:51;;;;;;;37.67;33.70;;;10.80;99.90;;;;;;4967677;28;20280;-73
2022/11/05 09:01:17;;;;;;;23.03;20.83;;;10.80;99.90;;;;;;4969127;28;20201;-73
2022/11/05 09:03:43;;;;;;;24.20;20.90;;;10.80;99.90;;;;;;4968935;28;20185;-73
2022/11/05 09:06:09;;;;;;;23.27;18.23;;;10.90;99.90;;;;;;4969061;28;20188;-73
2022/11/05 09:08:34;;;;;;;22.63;19.53;;;10.90;99.90;;;;;;4971240;28;20232;-73
2022/11/05 09:11:00;;;;;;;31.93;29.33;;;10.90;99.90;;;;;;4972477;28;20716;-73
2022/11/05 09:13:26;;;;;;;50.90;47.23;;;10.70;99.90;;;;;;4971072;28;20198;-75
2022/11/05 09:15:53;;;;;;;82.77;78.00;;;10.60;99.90;;;;;;4972376;28;20185;-73
2022/11/05 09:18:19;;;;;;;66.43;62.30;;;10.50;99.90;;;;;;4971603;28;20762;-74
2022/11/05 09:20:45;;;;;;;49.97;46.57;;;10.50;99.90;;;;;;4976992;28;20208;-74
2022/11/05 09:23:13;;;;;;;51.90;48.57;;;10.50;99.90;;;;;;4972229;28;20189;-73
2022/11/05 09:25:39;;;;;;;38.97;36.17;;;10.40;99.90;;;;;;4970796;28;20181;-73
2022/11/05 09:28:20;;;;;;;22.07;20.07;;;10.20;99.90;;;;;;4970485;28;20689;-74
2022/11/05 09:30:50;;;;;;;15.90;14.07;;;10.20;99.90;;;;;;4972064;28;20195;-73
2022/11/05 09:33:19;;;;;;;16.70;13.03;;;10.20;99.90;;;;;;4971713;28;20200;-76
2022/11/05 09:35:44;;;;;;;16.07;14.33;;;10.20;99.90;;;;;;4974781;28;20185;-68
2022/11/05 09:38:11;;;;;;;22.47;20.27;;;10.10;99.90;;;;;;4990679;28;20693;-68
2022/11/05 09:40:59;;;;;;;27.00;24.70;;;10.10;99.90;;;;;;4990934;28;20219;-68
2022/11/05 09:43:47;;;;;;;20.83;18.70;;;10.10;99.90;;;;;;4991070;28;20267;-67
2022/11/05 09:46:25;;;;;;;22.00;19.97;;;9.90;99.90;;;;;;4991386;28;20184;-71
2022/11/05 09:48:57;;;;;;;18.33;16.37;;;9.90;99.90;;;;;;4990644;28;20656;-72
2022/11/05 09:51:23;;;;;;;19.93;15.77;;;9.90;99.90;;;;;;4974113;28;20268;-71
2022/11/05 09:53:49;;;;;;;17.87;15.77;;;9.90;99.90;;;;;;4971443;28;20268;-71
2022/11/05 09:56:28;;;;;;;16.10;14.40;;;9.90;99.90;;;;;;4971353;28;20195;-71
2022/11/05 09:59:03;;;;;;;16.17;14.60;;;9.80;99.90;;;;;;4971171;28;20718;-70
2022/11/05 10:01:39;;;;;;;13.67;12.37;;;9.80;99.90;;;;;;4971631;28;20350;-72
2022/11/05 10:04:11;;;;;;;17.57;12.70;;;9.70;99.90;;;;;;4971563;28;20727;-71
2022/11/05 10:06:58;;;;;;;16.07;14.53;;;9.70;99.90;;;;;;5023332;28;20619;-72
2022/11/05 10:09:30;;;;;;;28.60;26.53;;;9.70;99.90;;;;;;5092219;28;20709;-72
2022/11/05 10:12:03;;;;;;;39.17;36.50;;;9.70;99.90;;;;;;5093282;28;20173;-71
2022/11/05 10:15:01;;;;;;;27.37;25.27;;;9.70;99.90;;;;;;5093596;28;20633;-74
2022/11/05 10:17:28;;;;;;;23.77;21.77;;;9.70;99.90;;;;;;5085486;28;20213;-72
2022/11/05 10:20:16;;;;;;;27.47;25.37;;;9.70;99.90;;;;;;4987518;28;20208;-69
2022/11/05 10:22:42;;;;;;;24.53;22.73;;;9.80;99.90;;;;;;4990620;28;20238;-72
2022/11/05 10:25:19;;;;;;;34.73;32.53;;;9.90;99.90;;;;;;4990608;28;20180;-72
2022/11/05 10:27:50;;;;;;;42.30;39.23;;;10.00;99.90;;;;;;4988946;28;20237;-72
2022/11/05 10:30:16;;;;;;;17.00;15.50;;;10.20;99.90;;;;;;4990872;28;20242;-72
2022/11/05 10:32:44;;;;;;;28.13;26.13;;;10.30;99.90;;;;;;4979962;28;20188;-73
2022/11/05 10:35:17;;;;;;;12.53;10.97;;;10.30;99.90;;;;;;4980620;28;20196;-73
2022/11/05 10:37:46;;;;;;;13.43;12.23;;;10.20;99.90;;;;;;4988802;28;20212;-73
2022/11/05 10:40:27;;;;;;;14.17;12.93;;;10.20;99.90;;;;;;4989224;28;20238;-72
2022/11/05 10:43:09;;;;;;;13.00;11.80;;;10.20;99.90;;;;;;4990482;28;20180;-72
2022/11/05 10:45:37;;;;;;;11.50;10.43;;;10.10;99.90;;;;;;4987075;28;20188;-72
2022/11/05 10:48:21;;;;;;;12.20;10.90;;;10.00;99.90;;;;;;4983606;28;20192;-73
2022/11/05 10:50:47;;;;;;;11.53;10.33;;;10.00;99.90;;;;;;4990542;28;20275;-73
2022/11/05 10:53:18;;;;;;;11.27;10.17;;;9.90;99.90;;;;;;4989212;28;20212;-73
2022/11/05 10:55:48;;;;;;;12.83;11.50;;;9.80;99.90;;;;;;4990249;28;20230;-73
2022/11/05 10:58:19;;;;;;;12.83;11.47;;;9.90;99.90;;;;;;4989445;28;20243;-74
2022/11/05 11:01:09;;;;;;;13.43;12.10;;;9.90;99.90;;;;;;4979468;28;20241;-74
2022/11/05 11:03:39;;;;;;;13.43;12.23;;;10.20;99.90;;;;;;4972470;28;20629;-72
2022/11/05 11:06:18;;;;;;;16.00;14.40;;;10.30;99.90;;;;;;4988999;28;20212;-74
2022/11/05 11:08:46;;;;;;;16.87;15.57;;;10.50;99.90;;;;;;4989873;28;20209;-73
2022/11/05 11:11:24;;;;;;;17.20;15.53;;;10.60;99.90;;;;;;4988908;28;20249;-74
2022/11/05 11:13:56;;;;;;;19.57;18.07;;;10.50;99.90;;;;;;4986897;28;20737;-74
2022/11/05 11:16:24;;;;;;;51.13;48.00;;;10.50;99.90;;;;;;4969295;28;20192;-73
2022/11/05 11:19:01;;;;;;;55.50;52.40;;;10.40;99.90;;;;;;4970152;28;20413;-74
2022/11/05 11:21:29;;;;;;;72.30;68.27;;;10.40;99.90;;;;;;4969358;28;20589;-74
2022/11/05 11:24:03;;;;;;;81.87;77.23;;;10.30;99.90;;;;;;4969357;28;20627;-73
2022/11/05 11:26:35;;;;;;;70.30;66.27;;;10.30;99.90;;;;;;4970385;28;20647;-74
2022/11/05 11:29:07;;;;;;;75.43;71.30;;;10.30;99.90;;;;;;4970185;28;20178;-73
2022/11/05 11:31:37;;;;;;;82.50;78.00;;;10.30;99.90;;;;;;4969322;28;20223;-73
2022/11/05 11:34:15;;;;;;;82.03;77.60;;;10.40;99.90;;;;;;4970488;28;20185;-73
2022/11/05 11:36:50;;;;;;;71.30;67.40;;;10.40;99.90;;;;;;4970102;28;20638;-74
2022/11/05 11:39:21;;;;;;;62.30;58.83;;;10.40;99.90;;;;;;4969023;28;20284;-73
2022/11/05 11:41:52;;;;;;;35.30;33.23;;;10.40;99.90;;;;;;4968877;28;20240;-74
2022/11/05 11:44:26;;;;;;;22.03;20.63;;;10.50;99.90;;;;;;4973885;28;20187;-74
2022/11/05 11:47:00;;;;;;;20.97;19.40;;;10.60;99.90;;;;;;4989235;28;20616;-74
2022/11/05 11:49:44;;;;;;;33.77;31.60;;;10.80;99.90;;;;;;4989502;28;20252;-73
2022/11/05 11:52:14;;;;;;;24.47;22.90;;;11.00;99.90;;;;;;4989376;28;20551;-73
2022/11/05 11:54:40;;;;;;;13.23;12.03;;;11.30;99.90;;;;;;4972108;28;20181;-73
2022/11/05 11:57:24;;;;;;;14.07;12.87;;;11.50;99.90;;;;;;4968540;28;20205;-73
2022/11/05 11:59:56;;;;;;;56.93;53.70;;;11.60;99.90;;;;;;4984149;28;20207;-73
2022/11/05 12:03:20;;;;;;;47.53;44.80;;;11.60;99.90;;;;;;4987934;28;20593;-74
2022/11/05 12:05:45;;;;;;;32.37;30.10;;;11.60;99.90;;;;;;5047312;28;20206;-73
2022/11/05 12:08:29;;;;;;;20.93;19.30;;;11.40;99.90;;;;;;4990167;28;20245;-74
2022/11/05 12:11:27;;;;;;;16.57;15.17;;;11.30;99.90;;;;;;4988149;28;20214;-73
2022/11/05 12:14:03;;;;;;;18.73;16.40;;;11.20;99.90;;;;;;4970392;28;20267;-74
2022/11/05 12:16:48;;;;;;;36.80;34.27;;;11.00;99.90;;;;;;4968922;28;20201;-74
2022/11/05 12:19:39;;;;;;;70.73;66.37;;;10.90;99.90;;;;;;4969647;28;20181;-73
2022/11/05 12:22:35;;;;;;;129.27;121.83;;;10.80;99.90;;;;;;4969806;28;20196;-73
2022/11/05 12:25:09;;;;;;;138.03;130.10;;;10.60;99.90;;;;;;4969930;28;20193;-73
2022/11/05 12:28:21;;;;;;;105.77;99.40;;;10.50;99.90;;;;;;4981369;28;20200;-74
2022/11/05 12:31:09;;;;;;;51.70;48.10;;;10.60;99.90;;;;;;5048727;28;20588;-74
2022/11/05 12:33:49;;;;;;;28.00;25.67;;;10.60;99.90;;;;;;5030379;28;20269;-73
2022/11/05 12:36:23;;;;;;;40.77;37.77;;;10.70;99.90;;;;;;5004719;28;20210;-74
2022/11/05 12:39:13;;;;;;;59.70;55.73;;;10.90;99.90;;;;;;4987337;28;20204;-74
2022/11/05 12:42:07;;;;;;;54.63;50.93;;;11.10;99.90;;;;;;4988652;28;20213;-74
2022/11/05 12:45:10;;;;;;;81.93;77.03;;;11.30;99.90;;;;;;4971359;28;20181;-74
2022/11/05 12:47:50;;;;;;;22.37;20.63;;;11.60;99.90;;;;;;4967907;28;20211;-74
2022/11/05 12:50:47;;;;;;;13.67;12.30;;;11.70;99.90;;;;;;4969513;28;20196;-74
2022/11/05 12:53:24;;;;;;;15.50;14.23;;;12.00;99.90;;;;;;4969806;28;20214;-74
2022/11/05 12:55:51;;;;;;;20.10;18.60;;;12.20;99.90;;;;;;4979864;28;20191;-74
2022/11/05 12:58:41;;;;;;;21.50;19.90;;;12.30;99.90;;;;;;4988116;28;20228;-73
2022/11/05 13:01:18;;;;;;;20.60;18.90;;;12.30;99.90;;;;;;4988711;28;20212;-74
2022/11/05 13:04:00;;;;;;;18.13;16.57;;;12.20;99.90;;;;;;4977975;28;20315;-73
2022/11/05 13:06:40;;;;;;;16.87;15.43;;;12.40;99.90;;;;;;4968034;28;20176;-73
2022/11/05 13:09:42;;;;;;;15.57;14.07;;;12.40;99.90;;;;;;4967714;28;20183;-73
2022/11/05 13:12:14;;;;;;;15.43;14.03;;;12.20;99.90;;;;;;4999796;28;20202;-73
2022/11/05 13:14:47;;;;;;;14.87;13.43;;;11.90;99.90;;;;;;4985211;28;20185;-73
2022/11/05 13:17:23;;;;;;;14.40;13.20;;;11.70;99.90;;;;;;4986956;28;20304;-74
2022/11/05 13:20:21;;;;;;;16.93;15.53;;;11.50;99.90;;;;;;4988800;28;20204;-74
2022/11/05 13:22:57;;;;;;;19.67;17.97;;;11.40;99.90;;;;;;4986941;28;20267;-73
2022/11/05 13:25:30;;;;;;;18.77;17.37;;;11.30;99.90;;;;;;4969084;28;20196;-74
2022/11/05 13:28:23;;;;;;;19.40;17.70;;;11.30;99.90;;;;;;4968521;28;20231;-74
2022/11/05 13:30:56;;;;;;;19.03;17.63;;;11.10;99.90;;;;;;4968945;28;20705;-73
2022/11/05 13:33:43;;;;;;;20.10;18.60;;;11.10;99.90;;;;;;4973250;28;20534;-74
2022/11/05 13:39:16;;;;;;;21.80;20.33;;;10.90;99.90;;;;;;4988080;28;20519;-74